Latest Weather Observations for Luncheon Hill

IDT60801

Issued at 1:31 pm EST Friday 6 May 2016 (issued every 30 minutes, with the page automatically refreshed every 10 minutes)

About weather observations | Map of weather stations | Latest weather observations for TAS | Other Formats
Station Details ID: 091259 Name: LUNCHEON HILL (FORESTRY) Lat: -41.15 Lon: 145.15 Height: 344.0 m
Data from the previous 72 hours. | See also: Recent months at Luncheon Hill
Date/Time
EST
Temp
°C
App
Temp
°C
Dew
Point
Rel
Hum
%
Delta-T
°C
Wind Press
QNH
hPa
Press
MSL
hPa
Rain
since 9 am
mm
Dir
 
Spd
km/h
Gust
km/h
Spd
kts
Gust
kts
06/01:30pm 13.4 8.9 8.7 73 2.4 WNW 22 32 12 17 - - 0.0
06/01:00pm 13.9 8.7 10.3 79 1.9 NW 28 41 15 22 - - 0.0
06/12:30pm 13.6 9.8 11.1 85 1.3 NW 22 28 12 15 - - 0.0
06/12:00pm 12.7 8.9 9.9 83 1.5 WNW 20 32 11 17 - - 0.0
06/11:30am 12.1 7.1 10.8 92 0.7 NW 28 35 15 19 - - 0.0
06/11:00am 13.1 9.6 10.8 86 1.2 NNW 20 30 11 16 - - 0.0
06/10:30am 13.4 10.2 11.3 87 1.1 NNW 19 24 10 13 - - 0.0
06/10:00am 12.6 9.6 10.8 89 1.0 NNW 17 20 9 11 - - 0.0
06/09:30am 11.3 8.4 9.7 90 0.8 NW 15 19 8 10 - - 0.0
06/09:00am 10.7 7.2 8.8 88 1.0 NW 17 20 9 11 - - 14.2
06/08:30am 10.3 6.8 8.6 89 0.8 WNW 17 20 9 11 - - 14.2
06/08:00am 10.0 6.9 8.9 93 0.6 WNW 15 19 8 10 - - 14.2
06/07:30am 9.8 6.7 8.9 94 0.5 W 15 20 8 11 - - 14.2
06/07:00am 9.5 6.8 8.9 96 0.3 W 13 17 7 9 - - 14.2
06/06:30am 9.6 7.3 9.0 96 0.3 W 11 15 6 8 - - 14.2
06/06:00am 9.5 6.8 9.0 97 0.3 WSW 13 19 7 10 - - 14.2
06/05:30am 9.6 6.3 9.5 99 0.1 W 17 24 9 13 - - 14.2
06/05:00am 10.2 7.8 10.1 99 0.1 SW 13 26 7 14 - - 14.2
06/04:30am 10.5 7.8 10.3 99 0.1 WSW 15 24 8 13 - - 13.6
06/04:00am 11.0 8.8 10.8 99 0.1 W 13 22 7 12 - - 12.0
06/03:30am 11.1 7.6 10.9 99 0.1 WNW 20 30 11 16 - - 11.8
06/03:00am 11.4 8.6 11.2 99 0.1 NW 17 24 9 13 - - 8.8
06/02:30am 11.7 8.3 11.4 98 0.2 WNW 20 35 11 19 - - 8.6
06/02:00am 11.9 7.8 11.4 97 0.3 W 24 43 13 23 - - 7.2
06/01:30am 13.6 7.7 12.5 93 0.6 NW 35 57 19 31 - - 6.6
06/01:20am 13.6 8.3 12.5 93 0.6 NW 32 54 17 29 - - 6.6
06/01:00am 13.3 9.4 12.2 93 0.6 NW 24 35 13 19 - - 5.8
06/12:30am 13.6 7.9 11.8 89 1.0 NNW 33 43 18 23 - - 4.6
06/12:00am 13.8 8.3 11.8 88 1.1 NNW 32 44 17 24 - - 4.4
 
Date/Time
EST
Temp
°C
App
Temp
°C
Dew
Point
Rel
Hum
%
Delta-T
°C
Wind Press
QNH
hPa
Press
MSL
hPa
Rain
since 9 am
mm
Dir
 
Spd
km/h
Gust
km/h
Spd
kts
Gust
kts
05/11:43pm 13.3 8.2 12.0 92 0.7 NNW 30 48 16 26 - - 4.4
05/11:30pm 13.3 7.3 12.0 92 0.7 NNW 35 50 19 27 - - 4.4
05/11:00pm 13.8 7.3 11.7 87 1.1 NNW 37 69 20 37 - - 4.4
05/10:59pm 13.7 7.3 11.9 89 1.0 NNW 37 69 20 37 - - 4.4
05/10:30pm 13.9 8.2 11.8 87 1.1 NNW 33 46 18 25 - - 3.8
05/10:00pm 13.8 8.3 11.8 88 1.1 N 32 43 17 23 - - 3.8
05/09:30pm 13.9 9.1 11.8 87 1.1 N 28 39 15 21 - - 3.8
05/09:00pm 13.9 8.3 11.6 86 1.3 N 32 43 17 23 - - 3.8
05/08:30pm 13.9 7.8 11.6 86 1.3 NNW 35 48 19 26 - - 3.8
05/08:00pm 13.6 7.9 11.8 89 1.0 N 33 46 18 25 - - 3.8
05/07:35pm 13.4 7.7 11.8 90 0.9 N 33 54 18 29 - - 3.8
05/07:30pm 13.3 7.8 11.9 91 0.8 N 32 43 17 23 - - 3.8
05/07:00pm 13.2 8.1 11.8 91 0.8 NNW 30 39 16 21 - - 3.8
05/06:30pm 13.1 7.4 11.7 91 0.8 N 33 43 18 23 - - 3.8
05/06:00pm 13.0 7.5 11.9 93 0.6 N 32 43 17 23 - - 3.8
05/05:30pm 12.5 7.9 12.2 98 0.2 N 28 35 15 19 - - 3.8
05/05:00pm 12.5 7.1 12.3 99 0.1 N 32 39 17 21 - - 3.8
05/04:30pm 12.6 8.0 12.4 99 0.1 N 28 35 15 19 - - 3.4
05/04:00pm 12.6 8.0 12.4 99 0.1 N 28 41 15 22 - - 3.4
05/03:30pm 12.5 7.0 12.3 99 0.1 N 33 52 18 28 - - 3.4
05/03:23pm 12.5 7.1 12.3 99 0.1 N 32 52 17 28 - - 3.4
05/03:00pm 12.6 8.0 12.4 99 0.1 N 28 41 15 22 - - 3.0
05/02:30pm 12.5 7.0 12.3 99 0.1 N 33 41 18 22 - - 2.4
05/02:00pm 12.6 7.3 12.4 99 0.1 N 32 41 17 22 - - 2.4
05/01:30pm 12.4 7.0 12.2 99 0.1 NNW 32 41 17 22 - - 1.8
05/01:00pm 12.4 6.9 11.9 97 0.3 NNW 32 43 17 23 - - 1.0
05/12:41pm 12.7 7.0 11.8 94 0.5 NNW 33 52 18 28 - - 0.8
05/12:30pm 12.9 7.8 11.8 93 0.6 N 30 39 16 21 - - 0.6
05/12:00pm 12.9 7.3 11.6 92 0.7 N 32 44 17 24 - - 0.6
05/11:30am 12.6 6.9 11.7 94 0.5 N 33 46 18 25 - - 0.6
05/11:00am 12.4 7.6 11.8 96 0.3 NNW 28 35 15 19 - - 0.6
05/10:30am 12.1 7.8 11.9 99 0.1 NNW 26 43 14 23 - - 0.6
05/10:00am 12.0 6.5 11.7 98 0.2 NNW 32 43 17 23 - - 0.4
05/09:30am 12.1 6.6 11.8 98 0.2 NNW 32 50 17 27 - - 0.0
05/09:21am 12.0 6.5 11.8 99 0.1 NNW 32 50 17 27 - - 0.0
05/09:00am 12.0 6.5 11.8 99 0.1 NNW 32 44 17 24 - - 8.0
05/08:30am 11.8 6.2 11.6 99 0.1 NNW 32 46 17 25 - - -
05/08:00am 11.6 6.4 11.6 100 0.0 NNW 30 43 16 23 - - -
05/07:30am 11.5 5.8 11.3 99 0.1 N 32 41 17 22 - - -
05/07:00am 11.5 6.3 11.5 100 0.0 NNW 30 43 16 23 - - -
05/06:30am 11.5 6.7 11.5 100 0.0 NNW 28 41 15 22 - - -
05/06:00am 11.5 6.3 11.5 100 0.0 NNW 30 46 16 25 - - -
05/05:57am 11.5 6.7 11.5 100 0.0 NNW 28 46 15 25 - - -
05/05:30am 11.4 6.1 11.4 100 0.0 NNW 30 41 16 22 - - -
05/05:20am 11.5 6.7 11.5 100 0.0 NNW 28 46 15 25 - - -
05/05:00am 11.4 6.1 11.4 100 0.0 NNW 30 43 16 23 - - -
05/04:30am 11.3 5.6 11.3 100 0.0 NNW 32 41 17 22 - - -
05/04:00am 11.2 6.3 11.2 100 0.0 NNW 28 37 15 20 - - -
05/03:30am 11.1 6.5 11.1 100 0.0 NNW 26 39 14 21 - - -
05/03:00am 11.0 6.4 11.0 100 0.0 NNW 26 37 14 20 - - 3.0
05/02:30am 11.0 5.1 11.0 100 0.0 NNW 33 46 18 25 - - -
05/02:00am 11.0 4.7 11.0 100 0.0 NNW 35 46 19 25 - - -
05/01:30am 10.9 5.1 10.9 100 0.0 NNW 32 43 17 23 - - -
05/01:00am 10.7 5.6 10.5 99 0.1 NNW 28 35 15 19 - - -
05/12:30am 10.7 4.8 10.5 99 0.1 NNW 32 44 17 24 - - -
05/12:00am 10.6 5.8 10.4 99 0.1 N 26 33 14 18 - - -
 
Date/Time
EST
Temp
°C
App
Temp
°C
Dew
Point
Rel
Hum
%
Delta-T
°C
Wind Press
QNH
hPa
Press
MSL
hPa
Rain
since 9 am
mm
Dir
 
Spd
km/h
Gust
km/h
Spd
kts
Gust
kts
04/11:30pm 10.5 6.1 10.3 99 0.1 NNW 24 32 13 17 - - -
04/11:00pm 10.2 5.3 10.1 99 0.1 NNW 26 33 14 18 - - -
04/10:30pm 10.2 5.0 10.1 99 0.1 NNW 28 37 15 20 - - -
04/10:00pm 10.0 4.3 9.9 99 0.1 NW 30 39 16 21 - - -
04/09:30pm 9.8 4.1 9.7 99 0.1 NNW 30 48 16 26 - - -
04/09:29pm 9.7 4.3 9.6 99 0.1 NNW 28 48 15 26 - - -
04/09:00pm 9.6 5.0 9.5 99 0.1 NNW 24 32 13 17 - - 2.0
04/08:30pm 9.4 3.9 9.3 99 0.1 NW 28 39 15 21 - - -
04/08:00pm 9.4 4.7 9.1 98 0.2 NNW 24 37 13 20 - - -
04/07:30pm 9.3 4.5 8.8 97 0.2 NW 24 33 13 18 - - -
04/07:09pm 9.4 3.9 9.1 98 0.2 NNW 28 48 15 26 - - -
04/07:00pm 9.2 4.4 8.9 98 0.1 N 24 32 13 17 - - -
04/06:30pm 9.2 5.2 8.4 95 0.4 NNW 19 24 10 13 - - -
04/06:00pm 9.0 2.9 8.4 96 0.3 NW 30 46 16 25 - - -
04/05:49pm 9.3 3.6 8.4 94 0.4 NW 28 48 15 26 - - -
04/05:30pm 9.7 4.3 8.0 89 0.8 NNW 26 33 14 18 - - -
04/05:00pm 9.4 4.0 8.2 92 0.6 NW 26 35 14 19 - - -
04/04:44pm 10.3 3.6 7.5 83 1.4 NW 32 50 17 27 - - -
04/04:30pm 10.7 5.5 7.2 79 1.7 NW 24 35 13 19 - - -
04/04:00pm 10.7 4.3 7.0 78 1.8 NW 30 41 16 22 - - -
04/03:30pm 10.9 5.0 7.6 80 1.6 NW 28 39 15 21 - - -
04/03:00pm 11.3 4.5 7.8 79 1.7 NW 33 48 18 26 - - -
04/02:30pm 10.3 3.6 7.4 82 1.4 NW 32 44 17 24 - - -
04/02:00pm 9.5 2.1 6.8 83 1.3 NW 35 46 19 25 - - -
04/01:43pm 9.5 2.4 6.6 82 1.4 WNW 33 61 18 33 - - -
04/01:40pm 10.2 4.3 6.0 75 2.0 WNW 26 48 14 26 - - -
04/01:30pm 10.4 5.7 6.2 75 2.0 WNW 20 39 11 21 - - -
04/01:00pm 11.9 4.4 6.4 69 2.7 WNW 35 50 19 27 - - -
04/12:49pm 11.0 3.7 5.3 68 2.7 NW 33 54 18 29 - - -
04/12:30pm 10.7 3.4 5.5 70 2.4 WNW 33 44 18 24 - - -
04/12:00pm 11.1 4.3 5.2 67 2.8 WNW 30 43 16 23 - - -
04/11:33am 10.9 3.4 6.1 72 2.3 WNW 35 54 19 29 - - -
04/11:30am 11.1 3.5 5.8 70 2.5 WNW 35 48 19 26 - - -
04/11:23am 11.0 4.1 6.4 73 2.2 WNW 32 41 17 22 - - -
04/11:00am 9.8 7.0 6.9 82 1.4 WSW 11 22 6 12 - - -
04/10:30am 9.8 7.0 6.9 82 1.4 W 11 17 6 9 - - 0.0
04/10:00am 8.3 4.9 5.8 84 1.2 W 13 20 7 11 - - 0.0
04/09:30am 8.3 3.1 5.6 83 1.2 WNW 22 33 12 18 - - 0.0
04/09:00am 7.6 2.9 5.2 85 1.1 NW 19 24 10 13 - - 12.2
04/08:30am 6.8 2.3 4.1 83 1.2 WNW 17 22 9 12 - - 12.2
04/08:00am 6.1 1.0 3.9 86 1.0 W 20 33 11 18 - - 12.2
04/07:30am 5.9 1.0 4.1 88 0.8 W 19 32 10 17 - - 12.0
04/07:00am 5.8 -0.1 4.1 89 0.7 WNW 24 35 13 19 - - 12.0
04/06:30am 6.0 1.3 3.3 83 1.2 W 17 26 9 14 - - 12.0
04/06:00am 6.4 1.1 2.9 78 1.5 W 20 37 11 20 - - 12.0
04/05:30am 6.1 1.4 3.4 83 1.2 WSW 17 24 9 13 - - 12.0
04/05:00am 5.4 0.4 3.4 87 0.9 WSW 19 32 10 17 - - 12.0
04/04:30am 5.8 0.1 3.1 83 1.1 WNW 22 33 12 18 - - 12.0
04/04:00am 5.6 -0.4 3.1 84 1.1 W 24 41 13 22 - - 12.0
04/03:30am 5.4 0.3 3.9 90 0.6 W 20 32 11 17 - - 12.0
04/03:00am 6.0 -0.8 3.3 83 1.2 WNW 28 44 15 24 - - 12.0
04/02:30am 5.8 -0.2 3.5 85 1.0 W 24 39 13 21 - - 12.0
04/02:07am 6.0 -0.7 3.7 85 1.0 W 28 52 15 28 - - 11.6
04/02:00am 6.9 0.8 2.8 75 1.7 W 24 44 13 24 - - 11.4
04/01:30am 6.3 0.3 3.3 81 1.3 WNW 24 32 13 17 - - 11.4
04/01:00am 6.2 0.6 3.4 82 1.2 WNW 22 30 12 16 - - 11.4
04/12:30am 6.3 1.0 2.9 79 1.4 W 20 30 11 16 - - 11.4
04/12:00am 6.0 0.7 3.2 82 1.2 W 20 37 11 20 - - 11.4
 
Date/Time
EST
Temp
°C
App
Temp
°C
Dew
Point
Rel
Hum
%
Delta-T
°C
Wind Press
QNH
hPa
Press
MSL
hPa
Rain
since 9 am
mm
Dir
 
Spd
km/h
Gust
km/h
Spd
kts
Gust
kts
03/11:30pm 5.9 -0.9 3.2 83 1.1 W 28 46 15 25 - - 11.4
03/11:26pm 6.1 -0.7 3.3 82 1.2 W 28 46 15 25 - - 11.4
03/11:00pm 6.5 0.0 2.4 75 1.7 W 26 39 14 21 - - 11.4
03/10:30pm 6.4 0.5 3.9 84 1.1 WNW 24 37 13 20 - - 11.4
03/10:00pm 6.2 1.4 4.5 89 0.7 NW 19 30 10 16 - - 11.4
03/09:30pm 6.0 1.9 4.3 89 0.7 W 15 22 8 12 - - 11.4
03/09:00pm 6.1 1.6 4.4 89 0.7 W 17 24 9 13 - - 11.4
03/08:30pm 6.4 -0.9 4.4 87 0.9 WNW 32 52 17 28 - - 11.2
03/08:28pm 6.5 -0.1 4.3 86 1.0 WNW 28 52 15 28 - - 11.2
03/08:00pm 6.3 0.6 4.8 90 0.7 WNW 24 35 13 19 - - 11.2
03/07:42pm 6.1 -0.8 4.7 91 0.6 WNW 30 41 16 22 - - 11.2
03/07:30pm 6.2 1.7 4.0 86 1.0 W 17 22 9 12 - - 11.2
03/07:00pm 6.5 -0.3 3.3 80 1.4 WNW 28 41 15 22 - - 11.2
03/06:30pm 7.0 0.3 3.8 80 1.4 WNW 28 48 15 26 - - 11.2
03/06:00pm 7.1 1.4 4.8 85 1.0 WNW 24 37 13 20 - - 11.2
03/05:30pm 6.7 2.8 5.5 92 0.5 W 15 20 8 11 - - 11.2
03/05:00pm 6.7 1.4 5.2 90 0.7 WNW 22 39 12 21 - - 11.2
03/04:30pm 6.5 1.9 5.6 94 0.4 W 19 26 10 14 - - 11.2
03/04:00pm 6.4 1.6 5.8 96 0.3 W 20 35 11 19 - - 11.2
03/03:30pm 6.7 2.0 6.1 96 0.3 W 20 35 11 19 - - 10.8
03/03:00pm 6.8 2.2 6.4 97 0.2 WSW 20 33 11 18 - - 10.0
03/02:30pm 7.1 2.1 6.5 96 0.3 W 22 41 12 22 - - 9.4
03/02:03pm 7.3 1.3 7.0 98 0.1 W 28 50 15 27 - - 8.4
03/02:00pm 7.5 1.9 7.2 98 0.1 WNW 26 44 14 24 - - 8.4

Other Formats:

Comma delimited format used in spreadsheet applications
http://www.bom.gov.au/fwo/IDT60801/IDT60801.95956.axf

JavaScript Object Notation format (JSON) in row-major order
http://www.bom.gov.au/fwo/IDT60801/IDT60801.95956.json